Time;durP1;ratioP1;P1;durP2;ratioP2;P2;SDS_P1;SDS_P2;PMS_P1;PMS_P2;Temp;Humidity;BMP_temperature;BMP_pressure;BME280_temperature;BME280_humidity;BME280_pressure;Samples;Min_cycle;Max_cycle;Signal;HPM_P1;HPM_P2
2022/11/15 00:00:39;;;;;;;23.35;11.25;;;9.20;79.90;;;;;;9175408;19;20046;-67
2022/11/15 00:04:01;;;;;;;21.95;11.27;;;9.20;79.90;;;;;;9177355;19;20018;-66
2022/11/15 00:07:23;;;;;;;23.42;11.30;;;9.20;79.90;;;;;;9177953;19;20354;-66
2022/11/15 00:11:06;;;;;;;21.20;10.50;;;9.20;80.00;;;;;;9174000;19;20042;-67
2022/11/15 00:14:30;;;;;;;21.20;11.35;;;9.20;79.90;;;;;;9176701;19;20026;-67
2022/11/15 00:17:52;;;;;;;23.80;11.70;;;9.30;80.00;;;;;;9177325;19;20492;-67
2022/11/15 00:21:15;;;;;;;21.67;10.77;;;9.20;80.00;;;;;;9175073;19;20022;-67
2022/11/15 00:24:38;;;;;;;20.13;11.30;;;9.20;80.00;;;;;;9177193;19;20006;-68
2022/11/15 00:28:01;;;;;;;23.95;10.90;;;9.30;80.10;;;;;;9176649;19;20018;-67
2022/11/15 00:31:26;;;;;;;23.13;11.40;;;9.30;80.10;;;;;;9174659;19;20018;-68
2022/11/15 00:34:48;;;;;;;28.48;12.57;;;9.30;80.20;;;;;;9177201;19;20456;-67
2022/11/15 00:38:10;;;;;;;22.85;12.30;;;9.30;80.20;;;;;;9175523;19;20026;-68
2022/11/15 00:41:32;;;;;;;27.95;12.48;;;9.30;80.30;;;;;;9176754;19;20082;-68
2022/11/15 00:44:55;;;;;;;26.80;13.13;;;9.30;80.30;;;;;;9176487;19;20011;-68
2022/11/15 00:48:19;;;;;;;25.52;12.35;;;9.30;80.30;;;;;;9174121;19;20015;-69
2022/11/15 00:51:42;;;;;;;27.85;12.50;;;9.30;80.40;;;;;;9173224;19;20018;-68
2022/11/15 00:55:04;;;;;;;32.00;12.80;;;9.30;80.40;;;;;;9166542;19;20487;-67
2022/11/15 00:58:26;;;;;;;23.40;12.32;;;9.40;80.50;;;;;;9174198;19;20464;-68
2022/11/15 01:01:48;;;;;;;27.48;12.52;;;9.40;80.50;;;;;;9180242;19;20014;-67
2022/11/15 01:05:13;;;;;;;30.08;12.43;;;9.40;80.50;;;;;;9182000;19;20019;-68
2022/11/15 01:08:35;;;;;;;;;;;9.40;80.60;;;;;;9183855;19;20653;-69
2022/11/15 01:11:58;;;;;;;32.58;12.70;;;9.40;80.60;;;;;;9182336;19;19985;-68
2022/11/15 01:15:20;;;;;;;31.30;13.27;;;9.50;80.50;;;;;;9182637;19;20043;-68
2022/11/15 01:18:43;;;;;;;31.35;13.32;;;9.50;80.60;;;;;;9183074;19;20062;-67
2022/11/15 01:22:07;;;;;;;30.55;14.13;;;9.50;80.70;;;;;;9181364;19;20787;-68
2022/11/15 01:25:30;;;;;;;;;;;9.50;80.80;;;;;;9183001;19;20048;-69
2022/11/15 01:28:52;;;;;;;30.40;12.85;;;9.50;80.80;;;;;;9182989;19;20650;-68
2022/11/15 01:32:15;;;;;;;29.92;13.73;;;9.50;80.70;;;;;;9180699;19;20094;-68
2022/11/15 01:35:41;;;;;;;30.65;13.00;;;9.60;80.90;;;;;;9182353;19;20021;-68
2022/11/15 01:39:06;;;;;;;29.38;14.43;;;9.60;80.90;;;;;;9181075;19;20110;-68
2022/11/15 01:42:28;;;;;;;;;;;9.60;81.00;;;;;;9181778;19;20014;-69
2022/11/15 01:45:55;;;;;;;29.92;12.98;;;9.60;81.00;;;;;;9180589;19;19930;-70
2022/11/15 01:49:20;;;;;;;29.65;12.75;;;9.60;80.90;;;;;;9182182;19;20026;-68
2022/11/15 01:52:42;;;;;;;30.40;13.90;;;9.70;81.10;;;;;;9177750;19;20476;-67
2022/11/15 01:56:11;;;;;;;26.80;13.57;;;9.70;81.20;;;;;;9179489;19;20026;-70
2022/11/15 01:59:34;;;;;;;33.33;13.68;;;9.70;81.30;;;;;;9180603;19;20025;-69
2022/11/15 02:02:57;;;;;;;25.70;13.00;;;9.70;81.80;;;;;;9177617;19;20014;-67
2022/11/15 02:06:20;;;;;;;30.95;13.93;;;9.70;81.30;;;;;;9178960;19;20039;-68
2022/11/15 02:09:42;;;;;;;28.58;14.05;;;9.80;81.40;;;;;;9181276;19;20015;-69
2022/11/15 02:13:06;;;;;;;26.48;13.10;;;9.80;81.50;;;;;;9176930;19;20018;-68
2022/11/15 02:16:37;;;;;;;25.42;13.05;;;9.80;81.50;;;;;;9181129;19;20491;-70
2022/11/15 02:20:35;;;;;;;32.95;15.10;;;9.80;81.60;;;;;;9180432;19;20018;-68
2022/11/15 02:24:35;;;;;;;28.88;13.25;;;9.90;81.70;;;;;;9179273;19;20018;-68
2022/11/15 02:28:29;;;;;;;29.77;13.10;;;9.90;81.80;;;;;;9181075;19;20345;-68
2022/11/15 02:32:01;;;;;;;42.75;13.38;;;9.90;81.80;;;;;;9176568;19;20025;-69
2022/11/15 02:35:36;;;;;;;35.13;15.20;;;9.90;81.80;;;;;;9178919;19;20019;-68
2022/11/15 02:39:01;;;;;;;;;;;10.00;81.90;;;;;;9180002;19;20022;-68
2022/11/15 02:46:08;;;;;;;31.10;14.63;;;10.00;81.60;;;;;;9177811;19;19930;-69
2022/11/15 02:49:35;;;;;;;27.38;14.02;;;10.10;81.70;;;;;;9179960;19;20014;-68
2022/11/15 02:52:58;;;;;;;37.63;17.42;;;10.10;81.80;;;;;;9172161;19;20025;-68
2022/11/15 02:56:20;;;;;;;30.73;14.93;;;10.10;81.90;;;;;;9179422;19;20028;-68
2022/11/15 02:59:56;;;;;;;35.10;16.00;;;10.10;82.00;;;;;;9174622;19;20014;-69
2022/11/15 03:03:33;;;;;;;33.50;15.98;;;10.20;82.20;;;;;;9179623;19;20414;-70
2022/11/15 03:07:07;;;;;;;29.65;15.30;;;10.20;82.20;;;;;;9177300;19;20510;-66
2022/11/15 03:10:42;;;;;;;32.78;15.38;;;10.20;82.20;;;;;;9177068;19;20018;-69
2022/11/15 03:14:12;;;;;;;30.92;14.13;;;10.30;82.40;;;;;;9179803;19;20111;-67
2022/11/15 03:17:38;;;;;;;30.67;14.98;;;10.30;82.30;;;;;;9177999;19;20015;-68
2022/11/15 03:21:01;;;;;;;31.38;14.85;;;10.30;82.40;;;;;;9176730;19;20030;-66
2022/11/15 03:24:28;;;;;;;30.17;13.95;;;10.40;82.40;;;;;;9175466;19;20010;-69
2022/11/15 03:27:56;;;;;;;25.50;14.63;;;10.40;82.40;;;;;;9179054;19;20058;-70
2022/11/15 03:35:00;;;;;;;25.85;14.25;;;10.50;82.60;;;;;;9179352;19;20491;-69
2022/11/15 03:38:26;;;;;;;28.45;13.27;;;10.50;82.60;;;;;;9178196;19;20014;-70
2022/11/15 03:41:59;;;;;;;34.75;15.38;;;10.50;82.60;;;;;;9177864;19;20014;-68
2022/11/15 03:45:27;;;;;;;27.88;14.38;;;10.60;82.70;;;;;;9175984;19;20018;-68
2022/11/15 03:48:54;;;;;;;31.55;14.25;;;10.60;82.80;;;;;;9178275;19;20025;-68
2022/11/15 03:52:20;;;;;;;29.65;14.07;;;10.60;82.80;;;;;;9175606;19;20030;-69
2022/11/15 03:55:42;;;;;;;30.10;14.45;;;10.60;82.80;;;;;;9169830;19;20371;-69
2022/11/15 03:59:07;;;;;;;32.20;14.88;;;10.70;82.90;;;;;;9177629;19;20476;-69
2022/11/15 04:02:30;;;;;;;23.65;13.40;;;10.70;82.90;;;;;;9178061;19;20078;-68
2022/11/15 04:05:52;;;;;;;29.10;13.80;;;10.70;83.00;;;;;;9177671;19;20333;-68
2022/11/15 04:09:14;;;;;;;30.98;13.20;;;10.80;83.70;;;;;;9176753;19;20018;-69
2022/11/15 04:12:40;;;;;;;22.80;12.90;;;10.80;83.00;;;;;;9174744;19;20471;-69
2022/11/15 04:16:05;;;;;;;27.45;12.48;;;10.80;83.00;;;;;;9177028;19;20022;-69
2022/11/15 04:26:40;;;;;;;25.75;12.73;;;10.90;83.20;;;;;;9175975;19;20459;-67
2022/11/15 04:30:03;;;;;;;25.40;12.25;;;11.00;83.20;;;;;;9176663;19;20018;-69
2022/11/15 04:33:27;;;;;;;26.23;13.07;;;11.00;83.20;;;;;;9170376;19;20044;-68
2022/11/15 04:40:24;;;;;;;21.67;12.10;;;11.10;83.30;;;;;;9175575;19;20018;-67
2022/11/15 04:43:46;;;;;;;21.35;12.80;;;11.10;83.30;;;;;;9174332;19;20015;-67
2022/11/15 04:47:09;;;;;;;25.23;11.60;;;11.10;83.40;;;;;;9176581;19;20064;-68
2022/11/15 04:50:33;;;;;;;25.00;12.70;;;11.20;83.50;;;;;;9171886;19;20014;-69
2022/11/15 04:53:55;;;;;;;25.98;13.13;;;11.20;83.50;;;;;;9168008;19;20018;-68
2022/11/15 04:57:17;;;;;;;20.88;11.80;;;11.20;83.50;;;;;;9174625;19;20022;-68
2022/11/15 05:00:39;;;;;;;22.30;11.90;;;11.30;83.60;;;;;;9174705;19;20010;-70
2022/11/15 05:07:40;;;;;;;22.17;10.95;;;11.40;83.70;;;;;;9174516;19;20022;-68
2022/11/15 05:11:02;;;;;;;21.30;11.45;;;11.40;83.70;;;;;;9172714;19;20034;-69
2022/11/15 05:14:24;;;;;;;24.52;12.00;;;11.40;83.70;;;;;;9175226;19;20046;-68
2022/11/15 05:17:47;;;;;;;21.10;11.75;;;11.50;83.70;;;;;;9173394;19;20038;-70
2022/11/15 05:21:11;;;;;;;28.48;12.32;;;11.50;83.80;;;;;;9174664;19;20023;-69
2022/11/15 05:24:36;;;;;;;22.67;12.32;;;11.60;83.80;;;;;;9172603;19;20026;-69
2022/11/15 05:27:58;;;;;;;21.58;10.80;;;11.60;83.80;;;;;;9175054;19;20026;-69
2022/11/15 05:31:20;;;;;;;27.73;12.02;;;11.60;83.80;;;;;;9174574;19;20030;-69
2022/11/15 05:34:43;;;;;;;24.95;11.20;;;11.70;83.80;;;;;;9174571;19;20010;-70
2022/11/15 05:38:05;;;;;;;22.25;11.77;;;11.70;83.90;;;;;;9171915;19;20037;-69
2022/11/15 05:41:34;;;;;;;22.65;12.05;;;11.70;83.80;;;;;;9171621;19;20018;-67
2022/11/15 05:44:56;;;;;;;20.60;11.85;;;11.80;83.90;;;;;;9172967;19;20011;-67
2022/11/15 05:48:19;;;;;;;21.40;11.82;;;11.80;83.90;;;;;;9178715;19;20007;-68
2022/11/15 05:51:42;;;;;;;19.60;11.82;;;11.80;83.90;;;;;;9179354;19;20038;-67
2022/11/15 05:55:07;;;;;;;21.83;9.15;;;11.90;84.00;;;;;;9174088;19;20037;-69
2022/11/15 05:58:33;;;;;;;23.08;10.98;;;11.90;83.90;;;;;;9181041;19;20015;-67
2022/11/15 06:01:55;;;;;;;18.67;10.63;;;11.90;83.90;;;;;;9181213;19;20126;-71
2022/11/15 06:05:17;;;;;;;21.83;10.82;;;12.00;84.00;;;;;;9179247;19;20019;-69
2022/11/15 06:08:39;;;;;;;20.70;10.68;;;12.00;84.00;;;;;;9180389;19;20781;-68
2022/11/15 06:12:02;;;;;;;23.15;10.90;;;12.00;84.00;;;;;;9177943;19;20045;-69
2022/11/15 06:15:25;;;;;;;23.35;10.60;;;12.00;84.60;;;;;;9178665;19;20018;-70
2022/11/15 06:18:48;;;;;;;21.45;11.38;;;12.00;84.10;;;;;;9177788;19;20022;-69
2022/11/15 06:22:10;;;;;;;21.13;10.80;;;12.10;84.10;;;;;;9180131;19;20102;-69
2022/11/15 06:25:33;;;;;;;21.98;10.43;;;12.00;84.00;;;;;;9180233;19;20014;-69
2022/11/15 06:28:55;;;;;;;22.15;11.45;;;12.10;84.10;;;;;;9180851;19;20033;-69
2022/11/15 06:32:19;;;;;;;17.63;11.15;;;12.10;84.10;;;;;;9180254;19;20010;-69
2022/11/15 06:35:42;;;;;;;;;;;12.10;84.10;;;;;;9179165;19;20026;-69
2022/11/15 06:39:04;;;;;;;22.13;11.65;;;12.20;84.10;;;;;;9178921;19;20245;-69
2022/11/15 06:42:27;;;;;;;18.83;10.43;;;12.20;84.00;;;;;;9174946;19;20018;-68
2022/11/15 06:45:49;;;;;;;16.70;10.30;;;12.20;84.10;;;;;;9177749;19;20014;-69
2022/11/15 06:49:14;;;;;;;17.17;10.98;;;12.20;84.20;;;;;;9180716;19;20026;-69
2022/11/15 06:52:36;;;;;;;18.10;10.57;;;12.20;84.20;;;;;;9178703;19;20727;-69
2022/11/15 06:56:02;;;;;;;21.25;11.77;;;12.20;84.30;;;;;;9175029;19;20023;-70
2022/11/15 06:59:24;;;;;;;20.38;10.45;;;12.30;84.40;;;;;;9180068;19;20371;-70
2022/11/15 07:02:47;;;;;;;18.27;10.75;;;12.30;84.40;;;;;;9177038;19;20014;-69
2022/11/15 07:06:12;;;;;;;23.52;10.80;;;12.30;84.40;;;;;;9178349;19;20017;-69
2022/11/15 07:09:34;;;;;;;14.40;9.27;;;12.30;84.50;;;;;;9177204;19;20019;-71
2022/11/15 07:12:58;;;;;;;14.02;9.10;;;12.40;84.50;;;;;;9172275;19;20021;-70
2022/11/15 07:16:20;;;;;;;20.02;10.52;;;12.40;84.50;;;;;;9166303;19;20022;-70
2022/11/15 07:19:42;;;;;;;18.40;10.48;;;12.40;84.60;;;;;;9167673;19;20030;-71
2022/11/15 07:23:07;;;;;;;23.55;11.00;;;12.40;84.60;;;;;;9164144;19;20014;-70
2022/11/15 07:26:30;;;;;;;17.73;10.85;;;12.50;84.70;;;;;;9162972;19;20018;-66
2022/11/15 07:29:52;;;;;;;17.60;10.82;;;12.50;84.70;;;;;;9165112;19;20029;-70
2022/11/15 07:33:14;;;;;;;17.65;10.18;;;12.50;84.80;;;;;;9163572;19;20030;-67
2022/11/15 07:36:37;;;;;;;18.33;10.05;;;12.50;84.70;;;;;;9170422;19;20781;-68
2022/11/15 07:40:01;;;;;;;16.05;10.23;;;12.50;84.80;;;;;;9167923;19;20022;-67
2022/11/15 07:43:23;;;;;;;14.85;9.50;;;12.50;84.70;;;;;;9171556;19;20082;-67
2022/11/15 07:46:46;;;;;;;15.05;9.93;;;12.50;84.70;;;;;;9164381;19;20022;-69
2022/11/15 07:50:09;;;;;;;18.15;9.43;;;12.60;84.80;;;;;;9166437;19;20051;-67
2022/11/15 07:53:31;;;;;;;12.95;9.45;;;12.60;84.80;;;;;;9167884;19;20014;-67
2022/11/15 07:56:56;;;;;;;15.45;11.05;;;12.60;84.80;;;;;;9170255;19;20428;-66
2022/11/15 08:00:22;;;;;;;19.13;9.82;;;12.60;85.50;;;;;;9173391;19;20266;-68
2022/11/15 08:03:45;;;;;;;17.63;9.98;;;12.60;84.90;;;;;;9174809;19;20019;-67
2022/11/15 08:07:07;;;;;;;17.50;11.00;;;12.60;85.00;;;;;;9169929;19;20121;-67
2022/11/15 08:10:30;;;;;;;19.48;11.10;;;12.60;85.00;;;;;;9172038;19;20038;-67
2022/11/15 08:13:54;;;;;;;15.75;10.15;;;12.70;85.10;;;;;;9168855;19;20023;-67
2022/11/15 08:17:16;;;;;;;15.00;9.70;;;12.60;85.10;;;;;;9171857;19;20025;-66
2022/11/15 08:20:39;;;;;;;21.33;12.23;;;12.60;85.00;;;;;;9169724;19;20554;-67
2022/11/15 08:24:01;;;;;;;16.23;11.32;;;12.70;85.70;;;;;;9169714;19;20023;-67
2022/11/15 08:27:23;;;;;;;18.85;10.05;;;12.70;85.10;;;;;;9170851;19;20051;-69
2022/11/15 08:30:47;;;;;;;19.08;11.50;;;12.70;85.20;;;;;;9172458;19;20025;-68
2022/11/15 08:34:10;;;;;;;18.02;12.55;;;12.70;85.20;;;;;;9173209;19;20011;-66
2022/11/15 08:37:32;;;;;;;16.13;11.32;;;12.70;85.20;;;;;;9174136;19;20435;-69
2022/11/15 08:41:00;;;;;;;18.52;12.05;;;12.80;85.30;;;;;;9172341;19;20022;-67
2022/11/15 08:44:23;;;;;;;21.92;12.50;;;12.80;85.20;;;;;;9168320;19;20018;-68
2022/11/15 08:47:48;;;;;;;20.65;11.60;;;12.80;85.20;;;;;;9175573;19;20026;-68
2022/11/15 08:51:16;;;;;;;19.05;12.57;;;12.80;85.30;;;;;;9174216;19;20053;-67
2022/11/15 08:54:39;;;;;;;21.50;11.80;;;12.80;85.30;;;;;;9168698;19;20035;-66
2022/11/15 08:58:01;;;;;;;19.42;11.30;;;12.80;85.40;;;;;;9175866;19;20026;-68
2022/11/15 09:01:24;;;;;;;16.25;10.93;;;12.80;85.40;;;;;;9172000;19;20018;-67
2022/11/15 09:04:49;;;;;;;16.50;10.80;;;12.80;85.40;;;;;;9173324;19;20018;-67
2022/11/15 09:08:12;;;;;;;15.15;9.90;;;12.90;85.50;;;;;;9169841;19;20018;-68
2022/11/15 09:11:54;;;;;;;19.42;9.80;;;12.90;85.50;;;;;;9168589;19;20641;-67
2022/11/15 09:15:23;;;;;;;14.23;8.63;;;12.80;85.50;;;;;;9169335;19;20365;-67
2022/11/15 09:18:46;;;;;;;15.27;8.95;;;12.90;85.60;;;;;;9166665;19;20082;-69
2022/11/15 09:22:10;;;;;;;13.57;7.82;;;12.90;85.60;;;;;;9177346;19;20022;-66
2022/11/15 09:25:33;;;;;;;15.32;7.45;;;12.90;85.60;;;;;;9177815;19;20018;-64
2022/11/15 09:28:56;;;;;;;15.85;7.38;;;12.90;85.70;;;;;;9183053;19;20011;-65
2022/11/15 09:32:18;;;;;;;15.07;6.95;;;12.90;85.70;;;;;;9173840;19;20015;-64
2022/11/15 09:35:40;;;;;;;11.77;6.60;;;12.90;85.70;;;;;;9175088;19;20049;-67
2022/11/15 09:39:05;;;;;;;17.30;6.80;;;12.90;85.70;;;;;;9172797;19;20019;-70
2022/11/15 09:42:37;;;;;;;12.43;6.78;;;12.90;85.80;;;;;;9172734;19;20031;-66
2022/11/15 09:46:09;;;;;;;9.57;7.28;;;12.90;85.80;;;;;;9178465;19;20019;-67
2022/11/15 09:49:52;;;;;;;9.30;4.97;;;13.00;86.00;;;;;;9175171;19;20018;-67
2022/11/15 09:53:10;;;;;;;8.95;5.03;;;12.90;85.80;;;;;;9170208;19;20014;-67
2022/11/15 09:56:20;;;;;;;9.80;5.95;;;12.90;85.80;;;;;;9178035;19;20032;-67
2022/11/15 09:59:48;;;;;;;8.43;5.43;;;13.00;86.00;;;;;;9174662;19;20018;-68
2022/11/15 10:03:15;;;;;;;12.30;6.80;;;13.00;86.10;;;;;;9179381;19;20019;-65
2022/11/15 10:06:27;;;;;;;11.88;5.78;;;13.00;86.00;;;;;;9173899;19;20014;-67
2022/11/15 10:09:35;;;;;;;12.65;6.10;;;13.00;86.00;;;;;;9175816;19;20497;-65
2022/11/15 10:12:45;;;;;;;8.05;5.18;;;13.10;86.00;;;;;;9172101;19;20057;-68
2022/11/15 10:15:50;;;;;;;8.57;5.32;;;13.00;86.00;;;;;;9167464;19;20018;-68
2022/11/15 10:19:02;;;;;;;9.27;5.03;;;13.00;85.90;;;;;;9173806;19;20433;-67
2022/11/15 10:22:30;;;;;;;10.25;4.78;;;13.10;86.10;;;;;;9171644;19;20006;-66
2022/11/15 10:25:35;;;;;;;7.10;3.90;;;13.10;86.20;;;;;;9178907;19;20014;-66
2022/11/15 10:28:41;;;;;;;6.38;4.05;;;13.10;86.00;;;;;;9176583;19;20024;-67
2022/11/15 10:31:44;;;;;;;10.95;3.92;;;13.10;86.10;;;;;;9177478;19;20148;-67
2022/11/15 10:34:50;;;;;;;8.07;4.35;;;13.10;86.00;;;;;;9178810;19;20042;-67
2022/11/15 10:37:53;;;;;;;6.78;3.83;;;13.20;86.10;;;;;;9177913;19;20010;-69
2022/11/15 10:41:09;;;;;;;4.95;2.97;;;13.20;86.10;;;;;;9179711;19;20018;-67
2022/11/15 10:44:25;;;;;;;6.97;4.30;;;13.20;86.10;;;;;;9179747;19;20606;-68
2022/11/15 10:47:31;;;;;;;7.00;3.70;;;13.30;86.10;;;;;;9179623;19;20007;-66
2022/11/15 10:50:43;;;;;;;10.73;4.10;;;13.30;86.00;;;;;;9177647;19;20490;-65
2022/11/15 10:53:48;;;;;;;10.95;7.07;;;13.30;85.90;;;;;;9172186;19;20018;-66
2022/11/15 10:56:55;;;;;;;9.38;4.18;;;13.40;85.90;;;;;;9179992;19;20505;-66
2022/11/15 11:00:03;;;;;;;5.13;3.40;;;13.40;85.90;;;;;;9179150;19;20423;-67
2022/11/15 11:03:28;;;;;;;7.15;3.70;;;13.40;85.90;;;;;;9177831;19;20373;-66
2022/11/15 11:06:48;;;;;;;10.15;3.72;;;13.50;85.90;;;;;;9178736;19;20018;-64
2022/11/15 11:10:00;;;;;;;7.75;3.65;;;13.50;85.90;;;;;;9177682;19;20018;-64
2022/11/15 11:13:23;;;;;;;6.43;3.25;;;13.60;85.80;;;;;;9176956;19;20027;-66
2022/11/15 11:16:47;;;;;;;8.43;2.47;;;13.60;85.80;;;;;;9179518;19;20366;-64
2022/11/15 11:20:01;;;;;;;7.70;2.67;;;13.70;85.60;;;;;;9177939;19;20027;-67
2022/11/15 11:23:25;;;;;;;;;;;13.80;85.50;;;;;;9180257;19;20030;-68
2022/11/15 11:26:40;;;;;;;3.92;2.17;;;13.80;85.40;;;;;;9177099;19;19926;-68
2022/11/15 11:30:00;;;;;;;7.22;2.65;;;13.90;85.30;;;;;;9178286;19;20364;-68
2022/11/15 11:33:13;;;;;;;3.38;2.15;;;13.90;85.20;;;;;;9175256;19;20018;-69
2022/11/15 11:36:27;;;;;;;2.42;1.50;;;13.90;85.10;;;;;;9176405;19;20014;-66
2022/11/15 11:39:44;;;;;;;6.20;2.10;;;14.00;85.10;;;;;;9175186;19;20489;-67
2022/11/15 11:42:58;;;;;;;4.35;1.77;;;13.90;84.90;;;;;;9170759;19;20046;-66
2022/11/15 11:46:15;;;;;;;4.10;1.67;;;13.90;84.80;;;;;;9169861;19;20102;-66
2022/11/15 11:49:26;;;;;;;2.45;1.40;;;13.90;84.60;;;;;;9163058;19;20107;-67
2022/11/15 11:52:34;;;;;;;3.13;1.80;;;13.90;84.60;;;;;;9163445;19;20022;-68
2022/11/15 11:55:44;;;;;;;2.63;1.27;;;14.00;84.60;;;;;;9159208;19;20130;-66
2022/11/15 11:58:49;;;;;;;4.35;1.60;;;14.00;84.50;;;;;;9164327;19;21058;-67
2022/11/15 12:01:53;;;;;;;7.93;1.58;;;14.00;84.40;;;;;;9167226;19;20085;-67
2022/11/15 12:05:05;;;;;;;1.90;1.48;;;14.00;84.40;;;;;;9168326;19;20025;-68
2022/11/15 12:08:27;;;;;;;3.35;1.40;;;14.00;84.20;;;;;;9171242;19;20015;-69
2022/11/15 12:11:40;;;;;;;5.25;1.42;;;14.00;84.10;;;;;;9168532;19;20096;-68
2022/11/15 12:14:47;;;;;;;4.93;1.52;;;14.00;84.00;;;;;;9174253;19;20022;-68
2022/11/15 12:17:51;;;;;;;7.03;1.80;;;14.00;84.00;;;;;;9177585;19;20082;-71
2022/11/15 12:20:59;;;;;;;2.58;1.77;;;14.00;83.90;;;;;;9173684;19;20018;-71
2022/11/15 12:24:07;;;;;;;8.18;2.25;;;14.00;83.80;;;;;;9175164;19;20040;-69
2022/11/15 12:27:19;;;;;;;5.43;2.58;;;14.00;83.80;;;;;;9177905;19;20021;-68
2022/11/15 12:30:44;;;;;;;5.72;3.13;;;14.00;83.60;;;;;;9177131;19;20010;-68
2022/11/15 12:33:49;;;;;;;5.28;3.05;;;14.00;83.50;;;;;;9173802;19;20032;-69
2022/11/15 12:36:53;;;;;;;6.70;2.40;;;14.00;83.50;;;;;;9174921;19;20447;-70
2022/11/15 12:40:24;;;;;;;6.22;3.28;;;14.00;84.00;;;;;;9175098;19;20067;-70
2022/11/15 12:43:45;;;;;;;6.00;3.20;;;14.00;83.20;;;;;;9173926;19;20858;-70
2022/11/15 12:47:05;;;;;;;6.78;3.17;;;14.00;83.20;;;;;;9173849;19;20018;-70
2022/11/15 12:50:14;;;;;;;6.80;3.25;;;14.00;83.00;;;;;;9172326;19;20018;-69
2022/11/15 12:53:32;;;;;;;6.75;3.42;;;14.00;83.10;;;;;;9167181;19;20014;-68
2022/11/15 12:56:36;;;;;;;5.22;3.20;;;14.00;82.90;;;;;;9173569;19;20459;-69
2022/11/15 12:59:57;;;;;;;5.60;3.60;;;13.90;83.00;;;;;;9174239;19;20011;-68
2022/11/15 13:03:23;;;;;;;6.35;3.80;;;13.90;82.80;;;;;;9177646;19;20019;-70
2022/11/15 13:06:44;;;;;;;8.50;3.67;;;13.90;82.70;;;;;;9177869;19;20531;-70
2022/11/15 13:09:57;;;;;;;5.47;3.45;;;13.90;82.70;;;;;;9178795;19;20476;-68
2022/11/15 13:13:02;;;;;;;5.25;3.40;;;13.90;82.60;;;;;;9181652;19;20045;-71
2022/11/15 13:16:09;;;;;;;6.63;3.13;;;13.90;82.00;;;;;;9181449;19;20378;-66
2022/11/15 13:19:13;;;;;;;5.65;3.53;;;13.90;82.50;;;;;;9176697;19;20048;-67
2022/11/15 13:26:10;;;;;;;6.15;3.40;;;13.90;82.40;;;;;;9181209;19;20691;-68
2022/11/15 13:29:21;;;;;;;5.93;3.72;;;13.80;82.20;;;;;;9176385;19;20489;-68
2022/11/15 13:32:27;;;;;;;6.70;3.38;;;13.80;82.30;;;;;;9180876;19;20014;-68
2022/11/15 13:35:35;;;;;;;4.53;3.50;;;13.80;82.20;;;;;;9176093;19;20022;-69
2022/11/15 13:38:41;;;;;;;5.40;3.05;;;13.80;82.20;;;;;;9175299;19;20467;-69
2022/11/15 13:41:50;;;;;;;8.50;3.58;;;13.80;82.10;;;;;;9179519;19;20097;-70
2022/11/15 13:44:58;;;;;;;4.78;2.40;;;13.80;82.10;;;;;;9179694;19;20006;-68
2022/11/15 13:48:06;;;;;;;5.25;2.45;;;13.70;81.90;;;;;;9180451;19;20478;-66
2022/11/15 13:51:18;;;;;;;3.75;2.08;;;13.70;81.90;;;;;;9179477;19;20018;-68
2022/11/15 13:54:28;;;;;;;6.10;2.05;;;13.70;81.80;;;;;;9175068;19;20056;-71
2022/11/15 13:57:39;;;;;;;4.05;2.08;;;13.70;81.80;;;;;;9182006;19;20014;-69
2022/11/15 14:00:45;;;;;;;9.15;2.85;;;13.70;81.70;;;;;;9181394;19;20011;-69
2022/11/15 14:03:54;;;;;;;6.50;2.05;;;13.70;81.60;;;;;;9179667;19;20018;-70
2022/11/15 14:06:59;;;;;;;5.65;2.85;;;13.70;81.50;;;;;;9180743;19;20030;-69
2022/11/15 14:10:29;;;;;;;5.50;1.52;;;13.60;81.40;;;;;;9179579;19;20017;-67
2022/11/15 14:13:34;;;;;;;2.85;1.30;;;13.60;81.10;;;;;;9177935;19;20134;-69
2022/11/15 14:16:39;;;;;;;1.92;1.20;;;13.60;81.20;;;;;;9181145;19;20015;-68
2022/11/15 14:19:45;;;;;;;2.67;1.50;;;13.50;81.10;;;;;;9172881;19;20245;-66
2022/11/15 14:22:56;;;;;;;10.80;1.45;;;13.50;80.90;;;;;;9170387;19;21444;-65
2022/11/15 14:26:01;;;;;;;2.78;1.40;;;13.50;80.80;;;;;;9173403;19;20093;-66
2022/11/15 14:29:26;;;;;;;1.85;1.30;;;13.50;80.80;;;;;;9174977;19;20023;-64
2022/11/15 14:32:38;;;;;;;4.90;1.20;;;13.40;80.50;;;;;;9169455;19;20052;-67
2022/11/15 14:35:44;;;;;;;4.47;1.63;;;13.50;80.70;;;;;;9178099;19;20015;-63
2022/11/15 14:38:49;;;;;;;7.43;3.08;;;13.40;80.60;;;;;;9178687;19;20022;-65
2022/11/15 14:41:53;;;;;;;7.20;3.10;;;13.40;80.50;;;;;;9178789;19;20006;-66
2022/11/15 14:44:57;;;;;;;5.60;1.30;;;13.40;80.50;;;;;;9180787;19;20648;-66
2022/11/15 14:48:00;;;;;;;3.88;1.20;;;13.30;80.40;;;;;;9178513;19;20134;-65
2022/11/15 14:51:14;;;;;;;4.07;1.30;;;13.30;80.30;;;;;;9177800;19;20994;-65
2022/11/15 14:54:18;;;;;;;6.28;1.30;;;13.30;80.20;;;;;;9173005;19;20094;-64
2022/11/15 14:57:22;;;;;;;5.32;1.20;;;13.30;80.30;;;;;;9178243;19;20022;-65
2022/11/15 15:00:26;;;;;;;2.03;1.23;;;13.30;80.20;;;;;;9178104;19;20022;-66
2022/11/15 15:03:38;;;;;;;7.25;1.23;;;13.20;80.70;;;;;;9179457;19;20018;-65
2022/11/15 15:06:43;;;;;;;1.95;1.10;;;13.20;80.00;;;;;;9178662;19;20361;-67
2022/11/15 15:09:48;;;;;;;4.70;1.38;;;13.20;79.90;;;;;;9175727;19;20014;-65
2022/11/15 15:12:52;;;;;;;1.48;0.93;;;13.20;79.90;;;;;;9178115;19;20010;-66
2022/11/15 15:15:55;;;;;;;;;;;13.20;79.80;;;;;;9179148;19;20026;-64
2022/11/15 15:18:59;;;;;;;3.80;1.20;;;13.10;79.80;;;;;;9176348;19;19922;-63
2022/11/15 15:22:05;;;;;;;4.93;1.95;;;13.10;79.80;;;;;;9177168;19;20018;-66
2022/11/15 15:25:23;;;;;;;4.03;1.20;;;13.10;79.70;;;;;;9177946;19;20023;-65
2022/11/15 15:28:27;;;;;;;5.30;1.15;;;13.10;79.40;;;;;;9177466;19;20015;-67
2022/11/15 15:31:37;;;;;;;3.58;1.35;;;13.00;79.50;;;;;;9177042;19;20046;-66
2022/11/15 15:34:41;;;;;;;5.05;1.60;;;13.00;79.40;;;;;;9176257;19;20011;-65
2022/11/15 15:37:48;;;;;;;4.75;1.88;;;13.00;79.40;;;;;;9176600;19;20010;-66
2022/11/15 15:40:52;;;;;;;4.05;1.10;;;13.00;79.30;;;;;;9176606;19;20521;-65
2022/11/15 15:43:56;;;;;;;5.25;1.40;;;13.00;79.30;;;;;;9178174;19;20010;-65
2022/11/15 15:46:59;;;;;;;4.47;1.55;;;12.90;79.20;;;;;;9177108;19;20010;-65
2022/11/15 15:50:04;;;;;;;3.50;1.40;;;12.90;79.10;;;;;;9177049;19;20018;-66
2022/11/15 15:53:10;;;;;;;5.05;1.73;;;12.90;79.10;;;;;;9169097;19;20086;-65
2022/11/15 15:56:14;;;;;;;2.97;1.48;;;12.80;79.00;;;;;;9168579;19;20024;-66
2022/11/15 15:59:17;;;;;;;;;;;12.80;79.00;;;;;;9172436;19;20018;-65
2022/11/15 16:02:21;;;;;;;3.80;1.10;;;12.80;79.10;;;;;;9170568;19;19922;-66
2022/11/15 16:05:25;;;;;;;3.53;1.42;;;12.70;79.00;;;;;;9170677;19;20077;-64
2022/11/15 16:08:31;;;;;;;8.20;1.77;;;12.70;79.10;;;;;;9163603;19;20745;-65
2022/11/15 16:11:51;;;;;;;2.67;1.30;;;12.70;79.00;;;;;;9165585;19;20021;-66
2022/11/15 16:14:54;;;;;;;10.32;1.83;;;12.60;78.90;;;;;;9160728;19;20019;-67
2022/11/15 16:18:00;;;;;;;6.63;1.70;;;12.60;78.90;;;;;;9159424;19;20133;-65
2022/11/15 16:21:04;;;;;;;3.95;1.40;;;12.60;78.80;;;;;;9165168;19;20061;-64
2022/11/15 16:24:10;;;;;;;3.78;1.33;;;12.50;78.80;;;;;;9162258;19;20018;-66
2022/11/15 16:27:16;;;;;;;4.50;1.77;;;12.60;78.80;;;;;;9165718;19;20018;-64
2022/11/15 16:30:22;;;;;;;3.17;1.38;;;12.50;78.70;;;;;;9158910;19;20035;-65
2022/11/15 16:33:26;;;;;;;4.53;1.38;;;12.50;78.70;;;;;;9156708;19;20052;-65
2022/11/15 16:36:34;;;;;;;2.28;1.38;;;12.50;78.60;;;;;;9160939;19;20111;-65
2022/11/15 16:39:40;;;;;;;4.85;1.50;;;12.50;78.60;;;;;;9168111;19;20780;-65
2022/11/15 16:42:44;;;;;;;2.55;1.42;;;12.50;78.60;;;;;;9173457;19;20530;-67
2022/11/15 16:45:48;;;;;;;2.95;1.58;;;12.50;78.60;;;;;;9172924;19;20010;-66
2022/11/15 16:48:52;;;;;;;;;;;12.50;79.20;;;;;;9169468;19;20352;-66
2022/11/15 16:51:56;;;;;;;;;;;12.50;78.60;;;;;;9168424;19;19949;-66
2022/11/15 16:55:01;;;;;;;2.00;1.13;;;12.40;78.60;;;;;;9146161;19;20378;-64
2022/11/15 16:58:05;;;;;;;2.17;1.20;;;12.40;78.70;;;;;;9160236;19;20019;-66
2022/11/15 17:01:19;;;;;;;2.05;1.38;;;12.40;78.60;;;;;;9163259;19;20022;-65
2022/11/15 17:04:23;;;;;;;2.25;1.23;;;12.40;78.50;;;;;;9161418;19;20022;-65
2022/11/15 17:07:27;;;;;;;5.80;1.50;;;12.40;78.50;;;;;;9168055;19;20019;-67
2022/11/15 17:10:33;;;;;;;7.72;3.83;;;12.40;78.50;;;;;;9168464;19;20039;-66
2022/11/15 17:13:36;;;;;;;10.45;4.88;;;12.50;78.50;;;;;;9167590;19;20539;-66
2022/11/15 17:16:41;;;;;;;6.60;2.08;;;12.50;78.50;;;;;;9167987;19;20015;-68
2022/11/15 17:19:45;;;;;;;2.75;1.63;;;12.50;78.50;;;;;;9170181;19;20093;-65
2022/11/15 17:22:48;;;;;;;;;;;12.40;78.40;;;;;;9167653;19;20479;-65
2022/11/15 17:26:03;;;;;;;3.92;1.73;;;12.40;78.40;;;;;;9166094;19;19944;-64